sensor_id;sensor_type;location;lat;lon;timestamp;P1;durP1;ratioP1;P2;durP2;ratioP2
21175;SDS011;10746;50.178;8.186;2022-09-09T00:00:15;6.05;;;1.77;;
21175;SDS011;10746;50.178;8.186;2022-09-09T00:02:44;2.70;;;2.10;;
21175;SDS011;10746;50.178;8.186;2022-09-09T00:05:20;5.22;;;1.95;;
21175;SDS011;10746;50.178;8.186;2022-09-09T00:07:55;3.38;;;1.73;;
21175;SDS011;10746;50.178;8.186;2022-09-09T00:10:29;2.67;;;1.83;;
21175;SDS011;10746;50.178;8.186;2022-09-09T00:13:01;6.97;;;1.73;;
21175;SDS011;10746;50.178;8.186;2022-09-09T00:15:35;3.83;;;1.60;;
21175;SDS011;10746;50.178;8.186;2022-09-09T00:18:09;6.97;;;2.13;;
21175;SDS011;10746;50.178;8.186;2022-09-09T00:20:42;5.75;;;2.00;;
21175;SDS011;10746;50.178;8.186;2022-09-09T00:23:19;4.28;;;2.00;;
21175;SDS011;10746;50.178;8.186;2022-09-09T00:25:52;3.55;;;1.55;;
21175;SDS011;10746;50.178;8.186;2022-09-09T00:32:09;3.03;;;1.60;;
21175;SDS011;10746;50.178;8.186;2022-09-09T00:34:46;2.17;;;1.60;;
21175;SDS011;10746;50.178;8.186;2022-09-09T00:37:15;3.42;;;1.58;;
21175;SDS011;10746;50.178;8.186;2022-09-09T00:39:44;3.67;;;1.60;;
21175;SDS011;10746;50.178;8.186;2022-09-09T00:42:14;3.90;;;1.80;;
21175;SDS011;10746;50.178;8.186;2022-09-09T00:44:53;5.55;;;1.95;;
21175;SDS011;10746;50.178;8.186;2022-09-09T00:50:31;5.32;;;1.70;;
21175;SDS011;10746;50.178;8.186;2022-09-09T00:53:15;2.25;;;1.60;;
21175;SDS011;10746;50.178;8.186;2022-09-09T00:55:54;3.60;;;1.60;;
21175;SDS011;10746;50.178;8.186;2022-09-09T00:58:30;3.15;;;1.75;;
21175;SDS011;10746;50.178;8.186;2022-09-09T01:00:57;2.97;;;1.70;;
21175;SDS011;10746;50.178;8.186;2022-09-09T01:03:34;2.50;;;1.42;;
21175;SDS011;10746;50.178;8.186;2022-09-09T01:06:10;7.32;;;1.88;;
21175;SDS011;10746;50.178;8.186;2022-09-09T01:11:42;3.20;;;1.70;;
21175;SDS011;10746;50.178;8.186;2022-09-09T01:14:24;4.78;;;1.83;;
21175;SDS011;10746;50.178;8.186;2022-09-09T01:17:01;5.05;;;1.60;;
21175;SDS011;10746;50.178;8.186;2022-09-09T01:19:39;2.67;;;1.90;;
21175;SDS011;10746;50.178;8.186;2022-09-09T01:22:15;3.22;;;1.70;;
21175;SDS011;10746;50.178;8.186;2022-09-09T01:24:53;6.45;;;1.90;;
21175;SDS011;10746;50.178;8.186;2022-09-09T01:27:39;3.67;;;1.60;;
21175;SDS011;10746;50.178;8.186;2022-09-09T01:30:08;3.05;;;2.08;;
21175;SDS011;10746;50.178;8.186;2022-09-09T01:32:38;4.60;;;1.90;;
21175;SDS011;10746;50.178;8.186;2022-09-09T01:35:07;2.67;;;1.70;;
21175;SDS011;10746;50.178;8.186;2022-09-09T01:37:41;4.43;;;1.90;;
21175;SDS011;10746;50.178;8.186;2022-09-09T01:40:08;2.90;;;1.70;;
21175;SDS011;10746;50.178;8.186;2022-09-09T01:42:35;6.13;;;2.10;;
21175;SDS011;10746;50.178;8.186;2022-09-09T01:45:03;3.63;;;1.85;;
21175;SDS011;10746;50.178;8.186;2022-09-09T01:47:31;3.10;;;1.65;;
21175;SDS011;10746;50.178;8.186;2022-09-09T01:49:58;3.97;;;1.70;;
21175;SDS011;10746;50.178;8.186;2022-09-09T01:52:25;2.45;;;1.70;;
21175;SDS011;10746;50.178;8.186;2022-09-09T01:54:52;2.85;;;1.90;;
21175;SDS011;10746;50.178;8.186;2022-09-09T01:57:20;5.10;;;1.90;;
21175;SDS011;10746;50.178;8.186;2022-09-09T01:59:54;3.20;;;2.00;;
21175;SDS011;10746;50.178;8.186;2022-09-09T02:02:32;4.05;;;2.10;;
21175;SDS011;10746;50.178;8.186;2022-09-09T02:05:03;5.32;;;2.28;;
21175;SDS011;10746;50.178;8.186;2022-09-09T02:07:42;4.93;;;2.65;;
21175;SDS011;10746;50.178;8.186;2022-09-09T02:10:15;5.18;;;2.10;;
21175;SDS011;10746;50.178;8.186;2022-09-09T02:12:46;4.72;;;2.33;;
21175;SDS011;10746;50.178;8.186;2022-09-09T02:15:16;2.38;;;1.90;;
21175;SDS011;10746;50.178;8.186;2022-09-09T02:17:48;2.22;;;1.98;;
21175;SDS011;10746;50.178;8.186;2022-09-09T02:20:18;5.30;;;2.30;;
21175;SDS011;10746;50.178;8.186;2022-09-09T02:22:46;4.60;;;2.22;;
21175;SDS011;10746;50.178;8.186;2022-09-09T02:25:17;6.95;;;2.03;;
21175;SDS011;10746;50.178;8.186;2022-09-09T02:27:47;4.55;;;2.00;;
21175;SDS011;10746;50.178;8.186;2022-09-09T02:30:16;8.40;;;2.20;;
21175;SDS011;10746;50.178;8.186;2022-09-09T02:32:44;4.57;;;2.20;;
21175;SDS011;10746;50.178;8.186;2022-09-09T02:35:15;2.70;;;1.80;;
21175;SDS011;10746;50.178;8.186;2022-09-09T02:37:46;3.00;;;2.15;;
21175;SDS011;10746;50.178;8.186;2022-09-09T02:40:13;9.52;;;3.10;;
21175;SDS011;10746;50.178;8.186;2022-09-09T02:42:41;7.32;;;2.05;;
21175;SDS011;10746;50.178;8.186;2022-09-09T02:45:09;4.45;;;1.90;;
21175;SDS011;10746;50.178;8.186;2022-09-09T02:47:38;2.85;;;2.08;;
21175;SDS011;10746;50.178;8.186;2022-09-09T02:50:15;3.45;;;2.22;;
21175;SDS011;10746;50.178;8.186;2022-09-09T02:52:49;3.13;;;2.28;;
21175;SDS011;10746;50.178;8.186;2022-09-09T02:55:29;5.45;;;2.20;;
21175;SDS011;10746;50.178;8.186;2022-09-09T02:58:03;8.23;;;2.13;;
21175;SDS011;10746;50.178;8.186;2022-09-09T03:00:33;4.28;;;2.22;;
21175;SDS011;10746;50.178;8.186;2022-09-09T03:03:02;4.22;;;2.58;;
21175;SDS011;10746;50.178;8.186;2022-09-09T03:05:30;3.13;;;2.17;;
21175;SDS011;10746;50.178;8.186;2022-09-09T03:07:57;7.65;;;2.67;;
21175;SDS011;10746;50.178;8.186;2022-09-09T03:10:24;5.25;;;3.13;;
21175;SDS011;10746;50.178;8.186;2022-09-09T03:12:51;6.80;;;2.92;;
21175;SDS011;10746;50.178;8.186;2022-09-09T03:15:18;5.55;;;2.60;;
21175;SDS011;10746;50.178;8.186;2022-09-09T03:17:45;4.68;;;2.30;;
21175;SDS011;10746;50.178;8.186;2022-09-09T03:20:12;4.05;;;2.60;;
21175;SDS011;10746;50.178;8.186;2022-09-09T03:22:40;7.25;;;2.78;;
21175;SDS011;10746;50.178;8.186;2022-09-09T03:25:07;4.32;;;2.53;;
21175;SDS011;10746;50.178;8.186;2022-09-09T03:27:34;8.75;;;3.30;;
21175;SDS011;10746;50.178;8.186;2022-09-09T03:30:01;7.07;;;2.90;;
21175;SDS011;10746;50.178;8.186;2022-09-09T03:32:28;5.88;;;3.50;;
21175;SDS011;10746;50.178;8.186;2022-09-09T03:34:56;6.32;;;2.90;;
21175;SDS011;10746;50.178;8.186;2022-09-09T03:37:23;5.80;;;2.72;;
21175;SDS011;10746;50.178;8.186;2022-09-09T03:39:51;4.88;;;2.80;;
21175;SDS011;10746;50.178;8.186;2022-09-09T03:42:19;10.73;;;3.35;;
21175;SDS011;10746;50.178;8.186;2022-09-09T03:44:46;8.30;;;3.10;;
21175;SDS011;10746;50.178;8.186;2022-09-09T03:47:14;5.32;;;2.70;;
21175;SDS011;10746;50.178;8.186;2022-09-09T03:49:41;10.13;;;2.95;;
21175;SDS011;10746;50.178;8.186;2022-09-09T03:52:08;8.95;;;3.38;;
21175;SDS011;10746;50.178;8.186;2022-09-09T03:54:35;8.07;;;3.13;;
21175;SDS011;10746;50.178;8.186;2022-09-09T03:57:03;6.43;;;3.20;;
21175;SDS011;10746;50.178;8.186;2022-09-09T03:59:30;9.50;;;3.30;;
21175;SDS011;10746;50.178;8.186;2022-09-09T04:01:57;8.88;;;3.88;;
21175;SDS011;10746;50.178;8.186;2022-09-09T04:04:24;11.15;;;4.35;;
21175;SDS011;10746;50.178;8.186;2022-09-09T04:06:51;10.57;;;3.80;;
21175;SDS011;10746;50.178;8.186;2022-09-09T04:09:18;11.75;;;4.05;;
21175;SDS011;10746;50.178;8.186;2022-09-09T04:11:44;5.35;;;3.80;;
21175;SDS011;10746;50.178;8.186;2022-09-09T04:14:12;5.75;;;3.80;;
21175;SDS011;10746;50.178;8.186;2022-09-09T04:16:39;4.13;;;3.60;;
21175;SDS011;10746;50.178;8.186;2022-09-09T04:19:09;9.30;;;3.42;;
21175;SDS011;10746;50.178;8.186;2022-09-09T04:21:37;6.90;;;4.10;;
21175;SDS011;10746;50.178;8.186;2022-09-09T04:24:05;9.80;;;3.80;;
21175;SDS011;10746;50.178;8.186;2022-09-09T04:26:32;7.40;;;3.75;;
21175;SDS011;10746;50.178;8.186;2022-09-09T04:29:00;4.85;;;4.25;;
21175;SDS011;10746;50.178;8.186;2022-09-09T04:31:28;6.25;;;4.15;;
21175;SDS011;10746;50.178;8.186;2022-09-09T04:33:55;7.35;;;4.65;;
21175;SDS011;10746;50.178;8.186;2022-09-09T04:36:22;9.50;;;4.40;;
21175;SDS011;10746;50.178;8.186;2022-09-09T04:38:48;10.40;;;4.50;;
21175;SDS011;10746;50.178;8.186;2022-09-09T04:41:15;4.88;;;4.10;;
21175;SDS011;10746;50.178;8.186;2022-09-09T04:43:42;12.05;;;4.32;;
21175;SDS011;10746;50.178;8.186;2022-09-09T04:46:09;6.60;;;4.15;;
21175;SDS011;10746;50.178;8.186;2022-09-09T04:48:38;12.10;;;4.55;;
21175;SDS011;10746;50.178;8.186;2022-09-09T04:51:05;8.77;;;4.32;;
21175;SDS011;10746;50.178;8.186;2022-09-09T04:53:34;8.10;;;4.50;;
21175;SDS011;10746;50.178;8.186;2022-09-09T04:56:02;8.48;;;4.93;;
21175;SDS011;10746;50.178;8.186;2022-09-09T04:58:31;10.07;;;5.45;;
21175;SDS011;10746;50.178;8.186;2022-09-09T05:01:04;10.50;;;5.68;;
21175;SDS011;10746;50.178;8.186;2022-09-09T05:03:32;7.65;;;5.20;;
21175;SDS011;10746;50.178;8.186;2022-09-09T05:06:05;10.43;;;5.35;;
21175;SDS011;10746;50.178;8.186;2022-09-09T05:08:33;12.82;;;5.50;;
21175;SDS011;10746;50.178;8.186;2022-09-09T05:11:00;11.63;;;5.35;;
21175;SDS011;10746;50.178;8.186;2022-09-09T05:13:27;13.20;;;5.80;;
21175;SDS011;10746;50.178;8.186;2022-09-09T05:15:56;11.68;;;5.43;;
21175;SDS011;10746;50.178;8.186;2022-09-09T05:18:23;11.05;;;5.30;;
21175;SDS011;10746;50.178;8.186;2022-09-09T05:20:50;8.60;;;5.13;;
21175;SDS011;10746;50.178;8.186;2022-09-09T05:23:18;12.75;;;5.40;;
21175;SDS011;10746;50.178;8.186;2022-09-09T05:25:53;13.65;;;5.50;;
21175;SDS011;10746;50.178;8.186;2022-09-09T05:28:21;9.07;;;5.45;;
21175;SDS011;10746;50.178;8.186;2022-09-09T05:30:54;13.98;;;5.82;;
21175;SDS011;10746;50.178;8.186;2022-09-09T05:33:22;12.50;;;5.97;;
21175;SDS011;10746;50.178;8.186;2022-09-09T05:35:54;8.88;;;6.63;;
21175;SDS011;10746;50.178;8.186;2022-09-09T05:38:23;11.80;;;5.95;;
21175;SDS011;10746;50.178;8.186;2022-09-09T05:40:50;10.35;;;6.45;;
21175;SDS011;10746;50.178;8.186;2022-09-09T05:43:17;6.93;;;5.63;;
21175;SDS011;10746;50.178;8.186;2022-09-09T05:45:44;7.43;;;5.18;;
21175;SDS011;10746;50.178;8.186;2022-09-09T05:48:12;7.75;;;4.95;;
21175;SDS011;10746;50.178;8.186;2022-09-09T05:50:40;12.45;;;5.32;;
21175;SDS011;10746;50.178;8.186;2022-09-09T05:53:07;10.00;;;5.35;;
21175;SDS011;10746;50.178;8.186;2022-09-09T05:55:36;11.05;;;5.47;;
21175;SDS011;10746;50.178;8.186;2022-09-09T05:58:02;6.07;;;4.72;;
21175;SDS011;10746;50.178;8.186;2022-09-09T06:00:29;6.38;;;3.92;;
21175;SDS011;10746;50.178;8.186;2022-09-09T06:02:57;4.80;;;4.30;;
21175;SDS011;10746;50.178;8.186;2022-09-09T06:05:23;9.70;;;5.70;;
21175;SDS011;10746;50.178;8.186;2022-09-09T06:07:52;5.93;;;4.18;;
21175;SDS011;10746;50.178;8.186;2022-09-09T06:10:20;8.38;;;4.32;;
21175;SDS011;10746;50.178;8.186;2022-09-09T06:12:48;6.85;;;3.67;;
21175;SDS011;10746;50.178;8.186;2022-09-09T06:15:14;6.80;;;4.00;;
21175;SDS011;10746;50.178;8.186;2022-09-09T06:17:42;4.53;;;3.20;;
21175;SDS011;10746;50.178;8.186;2022-09-09T06:20:10;8.35;;;3.47;;
21175;SDS011;10746;50.178;8.186;2022-09-09T06:22:39;10.32;;;3.08;;
21175;SDS011;10746;50.178;8.186;2022-09-09T06:25:07;4.90;;;2.72;;
21175;SDS011;10746;50.178;8.186;2022-09-09T06:27:34;5.80;;;2.90;;
21175;SDS011;10746;50.178;8.186;2022-09-09T06:30:02;6.25;;;2.50;;
21175;SDS011;10746;50.178;8.186;2022-09-09T06:32:29;4.10;;;2.17;;
21175;SDS011;10746;50.178;8.186;2022-09-09T06:34:59;5.82;;;2.50;;
21175;SDS011;10746;50.178;8.186;2022-09-09T06:37:27;4.72;;;2.53;;
21175;SDS011;10746;50.178;8.186;2022-09-09T06:39:54;4.15;;;2.50;;
21175;SDS011;10746;50.178;8.186;2022-09-09T06:42:20;4.32;;;2.25;;
21175;SDS011;10746;50.178;8.186;2022-09-09T06:44:48;5.85;;;2.75;;
21175;SDS011;10746;50.178;8.186;2022-09-09T06:47:16;6.35;;;2.58;;
21175;SDS011;10746;50.178;8.186;2022-09-09T06:49:42;7.88;;;2.65;;
21175;SDS011;10746;50.178;8.186;2022-09-09T06:52:09;7.72;;;2.92;;
21175;SDS011;10746;50.178;8.186;2022-09-09T06:54:36;5.78;;;2.47;;
21175;SDS011;10746;50.178;8.186;2022-09-09T06:57:03;4.22;;;2.30;;
21175;SDS011;10746;50.178;8.186;2022-09-09T06:59:32;8.82;;;2.30;;
21175;SDS011;10746;50.178;8.186;2022-09-09T07:01:58;4.60;;;2.38;;
21175;SDS011;10746;50.178;8.186;2022-09-09T07:04:27;6.78;;;2.47;;
21175;SDS011;10746;50.178;8.186;2022-09-09T07:06:54;3.45;;;2.90;;
21175;SDS011;10746;50.178;8.186;2022-09-09T07:09:20;3.22;;;2.20;;
21175;SDS011;10746;50.178;8.186;2022-09-09T07:11:49;7.70;;;2.90;;
21175;SDS011;10746;50.178;8.186;2022-09-09T07:14:17;3.47;;;2.60;;
21175;SDS011;10746;50.178;8.186;2022-09-09T07:16:45;8.23;;;2.85;;
21175;SDS011;10746;50.178;8.186;2022-09-09T07:19:12;3.45;;;2.85;;
21175;SDS011;10746;50.178;8.186;2022-09-09T07:21:41;5.97;;;3.63;;
21175;SDS011;10746;50.178;8.186;2022-09-09T07:24:08;6.82;;;3.58;;
21175;SDS011;10746;50.178;8.186;2022-09-09T07:26:36;5.50;;;3.92;;
21175;SDS011;10746;50.178;8.186;2022-09-09T07:29:04;5.53;;;3.38;;
21175;SDS011;10746;50.178;8.186;2022-09-09T07:31:31;5.05;;;3.67;;
21175;SDS011;10746;50.178;8.186;2022-09-09T07:34:00;7.70;;;3.90;;
21175;SDS011;10746;50.178;8.186;2022-09-09T07:36:27;5.35;;;4.05;;
21175;SDS011;10746;50.178;8.186;2022-09-09T07:38:57;7.10;;;4.10;;
21175;SDS011;10746;50.178;8.186;2022-09-09T07:41:26;7.78;;;3.85;;
21175;SDS011;10746;50.178;8.186;2022-09-09T07:43:55;6.75;;;3.00;;
21175;SDS011;10746;50.178;8.186;2022-09-09T07:46:23;4.13;;;2.88;;
21175;SDS011;10746;50.178;8.186;2022-09-09T07:48:53;4.93;;;2.75;;
21175;SDS011;10746;50.178;8.186;2022-09-09T07:51:21;6.38;;;2.67;;
21175;SDS011;10746;50.178;8.186;2022-09-09T07:53:51;5.05;;;2.53;;
21175;SDS011;10746;50.178;8.186;2022-09-09T07:56:21;4.38;;;2.75;;
21175;SDS011;10746;50.178;8.186;2022-09-09T07:58:48;10.45;;;2.80;;
21175;SDS011;10746;50.178;8.186;2022-09-09T08:01:16;4.15;;;2.85;;
21175;SDS011;10746;50.178;8.186;2022-09-09T08:03:45;7.65;;;2.42;;
21175;SDS011;10746;50.178;8.186;2022-09-09T08:06:13;2.63;;;2.42;;
21175;SDS011;10746;50.178;8.186;2022-09-09T08:08:40;3.97;;;2.45;;
21175;SDS011;10746;50.178;8.186;2022-09-09T08:11:09;6.75;;;2.75;;
21175;SDS011;10746;50.178;8.186;2022-09-09T08:13:38;13.35;;;2.92;;
21175;SDS011;10746;50.178;8.186;2022-09-09T08:16:06;6.70;;;2.40;;
21175;SDS011;10746;50.178;8.186;2022-09-09T08:18:34;6.63;;;2.55;;
21175;SDS011;10746;50.178;8.186;2022-09-09T08:21:06;5.93;;;2.38;;
21175;SDS011;10746;50.178;8.186;2022-09-09T08:23:36;4.93;;;2.30;;
21175;SDS011;10746;50.178;8.186;2022-09-09T08:26:04;8.88;;;2.60;;
21175;SDS011;10746;50.178;8.186;2022-09-09T08:28:32;7.57;;;3.28;;
21175;SDS011;10746;50.178;8.186;2022-09-09T08:31:12;3.25;;;2.20;;
21175;SDS011;10746;50.178;8.186;2022-09-09T08:33:40;7.85;;;2.58;;
21175;SDS011;10746;50.178;8.186;2022-09-09T08:36:09;9.50;;;2.58;;
21175;SDS011;10746;50.178;8.186;2022-09-09T08:38:37;6.15;;;2.28;;
21175;SDS011;10746;50.178;8.186;2022-09-09T08:41:12;19.85;;;3.20;;
21175;SDS011;10746;50.178;8.186;2022-09-09T08:44:01;5.20;;;2.45;;
21175;SDS011;10746;50.178;8.186;2022-09-09T08:46:35;9.75;;;2.45;;
21175;SDS011;10746;50.178;8.186;2022-09-09T08:49:12;4.82;;;2.40;;
21175;SDS011;10746;50.178;8.186;2022-09-09T08:51:50;5.75;;;2.28;;
21175;SDS011;10746;50.178;8.186;2022-09-09T08:54:20;2.30;;;2.10;;
21175;SDS011;10746;50.178;8.186;2022-09-09T08:56:47;6.53;;;2.10;;
21175;SDS011;10746;50.178;8.186;2022-09-09T08:59:16;5.00;;;2.15;;
21175;SDS011;10746;50.178;8.186;2022-09-09T09:01:52;4.35;;;1.98;;
21175;SDS011;10746;50.178;8.186;2022-09-09T09:04:29;10.30;;;2.65;;
21175;SDS011;10746;50.178;8.186;2022-09-09T09:07:08;8.25;;;2.40;;
21175;SDS011;10746;50.178;8.186;2022-09-09T09:09:42;7.10;;;2.47;;
21175;SDS011;10746;50.178;8.186;2022-09-09T09:12:18;4.47;;;2.38;;
21175;SDS011;10746;50.178;8.186;2022-09-09T09:14:47;3.83;;;2.13;;
21175;SDS011;10746;50.178;8.186;2022-09-09T09:17:16;2.03;;;1.92;;
21175;SDS011;10746;50.178;8.186;2022-09-09T09:19:45;7.40;;;2.30;;
21175;SDS011;10746;50.178;8.186;2022-09-09T09:22:16;5.70;;;2.28;;
21175;SDS011;10746;50.178;8.186;2022-09-09T09:24:49;5.05;;;1.90;;
21175;SDS011;10746;50.178;8.186;2022-09-09T09:27:21;5.45;;;1.98;;
21175;SDS011;10746;50.178;8.186;2022-09-09T09:29:57;7.15;;;2.20;;
21175;SDS011;10746;50.178;8.186;2022-09-09T09:32:27;3.47;;;1.80;;
21175;SDS011;10746;50.178;8.186;2022-09-09T09:34:57;4.35;;;1.77;;
21175;SDS011;10746;50.178;8.186;2022-09-09T09:37:26;11.20;;;2.00;;
21175;SDS011;10746;50.178;8.186;2022-09-09T09:39:56;4.07;;;2.10;;
21175;SDS011;10746;50.178;8.186;2022-09-09T09:42:34;2.80;;;1.80;;
21175;SDS011;10746;50.178;8.186;2022-09-09T09:45:07;3.55;;;1.60;;
21175;SDS011;10746;50.178;8.186;2022-09-09T09:47:36;3.25;;;1.42;;
21175;SDS011;10746;50.178;8.186;2022-09-09T09:50:16;5.53;;;1.48;;
21175;SDS011;10746;50.178;8.186;2022-09-09T09:52:51;3.60;;;1.45;;
21175;SDS011;10746;50.178;8.186;2022-09-09T09:55:21;4.53;;;1.45;;
21175;SDS011;10746;50.178;8.186;2022-09-09T09:57:49;2.10;;;1.38;;
21175;SDS011;10746;50.178;8.186;2022-09-09T10:00:17;3.63;;;1.40;;
21175;SDS011;10746;50.178;8.186;2022-09-09T10:02:47;4.00;;;1.30;;
21175;SDS011;10746;50.178;8.186;2022-09-09T10:05:17;2.45;;;1.48;;
21175;SDS011;10746;50.178;8.186;2022-09-09T10:07:46;3.22;;;1.60;;
21175;SDS011;10746;50.178;8.186;2022-09-09T10:10:26;3.63;;;1.50;;
21175;SDS011;10746;50.178;8.186;2022-09-09T10:13:05;4.28;;;1.55;;
21175;SDS011;10746;50.178;8.186;2022-09-09T10:15:39;7.25;;;1.60;;
21175;SDS011;10746;50.178;8.186;2022-09-09T10:21:12;3.80;;;1.80;;
21175;SDS011;10746;50.178;8.186;2022-09-09T10:23:52;1.83;;;1.20;;
21175;SDS011;10746;50.178;8.186;2022-09-09T10:26:35;3.28;;;1.27;;
21175;SDS011;10746;50.178;8.186;2022-09-09T10:29:12;3.20;;;1.55;;
21175;SDS011;10746;50.178;8.186;2022-09-09T10:31:51;3.65;;;1.38;;
21175;SDS011;10746;50.178;8.186;2022-09-09T10:34:41;3.78;;;1.40;;
21175;SDS011;10746;50.178;8.186;2022-09-09T10:37:27;3.38;;;1.30;;
21175;SDS011;10746;50.178;8.186;2022-09-09T10:40:05;3.17;;;1.10;;
21175;SDS011;10746;50.178;8.186;2022-09-09T10:42:59;2.28;;;1.20;;
